sensor_id;sensor_type;location;lat;lon;timestamp;P1;durP1;ratioP1;P2;durP2;ratioP2
24030;SDS011;12240;51.142;22.486;2023-04-21T00:01:38;18.02;;;7.30;;
24030;SDS011;12240;51.142;22.486;2023-04-21T00:04:06;13.52;;;6.93;;
24030;SDS011;12240;51.142;22.486;2023-04-21T00:06:36;14.38;;;6.53;;
24030;SDS011;12240;51.142;22.486;2023-04-21T00:09:04;16.42;;;6.53;;
24030;SDS011;12240;51.142;22.486;2023-04-21T00:11:31;15.63;;;6.85;;
24030;SDS011;12240;51.142;22.486;2023-04-21T00:14:00;17.02;;;7.55;;
24030;SDS011;12240;51.142;22.486;2023-04-21T00:16:28;18.23;;;8.07;;
24030;SDS011;12240;51.142;22.486;2023-04-21T00:18:57;15.50;;;7.70;;
24030;SDS011;12240;51.142;22.486;2023-04-21T00:21:25;17.40;;;7.10;;
24030;SDS011;12240;51.142;22.486;2023-04-21T00:23:54;18.10;;;7.18;;
24030;SDS011;12240;51.142;22.486;2023-04-21T00:26:22;18.73;;;7.43;;
24030;SDS011;12240;51.142;22.486;2023-04-21T00:28:51;14.63;;;7.30;;
24030;SDS011;12240;51.142;22.486;2023-04-21T00:31:19;15.52;;;6.78;;
24030;SDS011;12240;51.142;22.486;2023-04-21T00:33:48;18.88;;;7.47;;
24030;SDS011;12240;51.142;22.486;2023-04-21T00:36:16;14.80;;;6.82;;
24030;SDS011;12240;51.142;22.486;2023-04-21T00:38:46;17.35;;;7.47;;
24030;SDS011;12240;51.142;22.486;2023-04-21T00:41:14;19.80;;;7.53;;
24030;SDS011;12240;51.142;22.486;2023-04-21T00:46:36;11.73;;;6.95;;
24030;SDS011;12240;51.142;22.486;2023-04-21T00:49:05;14.68;;;7.20;;
24030;SDS011;12240;51.142;22.486;2023-04-21T00:51:34;16.33;;;7.65;;
24030;SDS011;12240;51.142;22.486;2023-04-21T00:54:05;14.30;;;7.55;;
24030;SDS011;12240;51.142;22.486;2023-04-21T00:56:35;15.02;;;7.38;;
24030;SDS011;12240;51.142;22.486;2023-04-21T00:59:03;14.30;;;7.47;;
24030;SDS011;12240;51.142;22.486;2023-04-21T01:01:31;14.60;;;6.57;;
24030;SDS011;12240;51.142;22.486;2023-04-21T01:06:32;14.40;;;7.60;;
24030;SDS011;12240;51.142;22.486;2023-04-21T01:09:00;12.40;;;6.68;;
24030;SDS011;12240;51.142;22.486;2023-04-21T01:11:30;16.92;;;7.70;;
24030;SDS011;12240;51.142;22.486;2023-04-21T01:13:59;13.00;;;7.20;;
24030;SDS011;12240;51.142;22.486;2023-04-21T01:16:27;16.00;;;7.97;;
24030;SDS011;12240;51.142;22.486;2023-04-21T01:18:57;16.27;;;7.72;;
24030;SDS011;12240;51.142;22.486;2023-04-21T01:21:27;14.85;;;7.45;;
24030;SDS011;12240;51.142;22.486;2023-04-21T01:24:00;14.18;;;7.20;;
24030;SDS011;12240;51.142;22.486;2023-04-21T01:26:28;12.52;;;7.03;;
24030;SDS011;12240;51.142;22.486;2023-04-21T01:28:56;15.90;;;6.85;;
24030;SDS011;12240;51.142;22.486;2023-04-21T01:31:24;15.02;;;7.20;;
24030;SDS011;12240;51.142;22.486;2023-04-21T01:33:53;14.15;;;6.45;;
24030;SDS011;12240;51.142;22.486;2023-04-21T01:36:21;14.05;;;7.20;;
24030;SDS011;12240;51.142;22.486;2023-04-21T01:38:51;16.35;;;6.63;;
24030;SDS011;12240;51.142;22.486;2023-04-21T01:41:21;17.98;;;7.10;;
24030;SDS011;12240;51.142;22.486;2023-04-21T01:43:49;15.00;;;6.47;;
24030;SDS011;12240;51.142;22.486;2023-04-21T01:46:20;12.15;;;6.50;;
24030;SDS011;12240;51.142;22.486;2023-04-21T01:48:48;15.10;;;6.30;;
24030;SDS011;12240;51.142;22.486;2023-04-21T01:51:17;15.57;;;6.85;;
24030;SDS011;12240;51.142;22.486;2023-04-21T01:53:45;11.40;;;6.18;;
24030;SDS011;12240;51.142;22.486;2023-04-21T01:56:14;18.85;;;7.00;;
24030;SDS011;12240;51.142;22.486;2023-04-21T01:58:42;13.25;;;6.43;;
24030;SDS011;12240;51.142;22.486;2023-04-21T02:01:10;14.23;;;6.82;;
24030;SDS011;12240;51.142;22.486;2023-04-21T02:03:38;12.85;;;6.47;;
24030;SDS011;12240;51.142;22.486;2023-04-21T02:06:07;14.73;;;6.47;;
24030;SDS011;12240;51.142;22.486;2023-04-21T02:08:35;15.00;;;6.90;;
24030;SDS011;12240;51.142;22.486;2023-04-21T02:11:03;16.15;;;7.03;;
24030;SDS011;12240;51.142;22.486;2023-04-21T02:13:31;13.85;;;6.10;;
24030;SDS011;12240;51.142;22.486;2023-04-21T02:15:59;12.50;;;6.30;;
24030;SDS011;12240;51.142;22.486;2023-04-21T02:18:40;13.65;;;6.22;;
24030;SDS011;12240;51.142;22.486;2023-04-21T02:21:08;13.10;;;6.30;;
24030;SDS011;12240;51.142;22.486;2023-04-21T02:23:36;12.30;;;5.80;;
24030;SDS011;12240;51.142;22.486;2023-04-21T02:26:04;14.10;;;6.82;;
24030;SDS011;12240;51.142;22.486;2023-04-21T02:28:33;13.98;;;6.35;;
24030;SDS011;12240;51.142;22.486;2023-04-21T02:31:01;11.90;;;6.15;;
24030;SDS011;12240;51.142;22.486;2023-04-21T02:33:33;11.57;;;5.82;;
24030;SDS011;12240;51.142;22.486;2023-04-21T02:36:01;15.30;;;6.13;;
24030;SDS011;12240;51.142;22.486;2023-04-21T02:38:30;10.38;;;5.45;;
24030;SDS011;12240;51.142;22.486;2023-04-21T02:40:57;12.05;;;6.25;;
24030;SDS011;12240;51.142;22.486;2023-04-21T02:43:26;12.30;;;6.15;;
24030;SDS011;12240;51.142;22.486;2023-04-21T02:45:54;11.43;;;5.72;;
24030;SDS011;12240;51.142;22.486;2023-04-21T02:48:22;12.48;;;6.40;;
24030;SDS011;12240;51.142;22.486;2023-04-21T02:50:51;11.07;;;6.43;;
24030;SDS011;12240;51.142;22.486;2023-04-21T02:53:22;11.27;;;5.60;;
24030;SDS011;12240;51.142;22.486;2023-04-21T02:55:51;12.52;;;5.53;;
24030;SDS011;12240;51.142;22.486;2023-04-21T02:58:19;11.38;;;6.13;;
24030;SDS011;12240;51.142;22.486;2023-04-21T03:00:47;11.75;;;5.90;;
24030;SDS011;12240;51.142;22.486;2023-04-21T03:03:15;13.07;;;6.07;;
24030;SDS011;12240;51.142;22.486;2023-04-21T03:05:43;13.25;;;6.25;;
24030;SDS011;12240;51.142;22.486;2023-04-21T03:08:11;15.93;;;6.10;;
24030;SDS011;12240;51.142;22.486;2023-04-21T03:10:40;13.57;;;5.90;;
24030;SDS011;12240;51.142;22.486;2023-04-21T03:13:08;11.25;;;6.05;;
24030;SDS011;12240;51.142;22.486;2023-04-21T03:15:36;14.10;;;6.35;;
24030;SDS011;12240;51.142;22.486;2023-04-21T03:18:04;13.48;;;6.15;;
24030;SDS011;12240;51.142;22.486;2023-04-21T03:20:32;12.98;;;6.10;;
24030;SDS011;12240;51.142;22.486;2023-04-21T03:23:00;15.27;;;6.70;;
24030;SDS011;12240;51.142;22.486;2023-04-21T03:25:28;15.57;;;6.38;;
24030;SDS011;12240;51.142;22.486;2023-04-21T03:27:56;16.02;;;7.00;;
24030;SDS011;12240;51.142;22.486;2023-04-21T03:30:25;16.73;;;7.10;;
24030;SDS011;12240;51.142;22.486;2023-04-21T03:32:53;13.63;;;7.22;;
24030;SDS011;12240;51.142;22.486;2023-04-21T03:35:25;14.60;;;6.95;;
24030;SDS011;12240;51.142;22.486;2023-04-21T03:37:53;19.92;;;8.32;;
24030;SDS011;12240;51.142;22.486;2023-04-21T03:40:21;14.50;;;6.25;;
24030;SDS011;12240;51.142;22.486;2023-04-21T03:42:50;17.90;;;6.72;;
24030;SDS011;12240;51.142;22.486;2023-04-21T03:45:18;18.10;;;7.65;;
24030;SDS011;12240;51.142;22.486;2023-04-21T03:47:53;15.20;;;6.38;;
24030;SDS011;12240;51.142;22.486;2023-04-21T03:50:22;15.27;;;6.55;;
24030;SDS011;12240;51.142;22.486;2023-04-21T03:52:50;16.08;;;7.07;;
24030;SDS011;12240;51.142;22.486;2023-04-21T03:55:18;13.68;;;6.43;;
24030;SDS011;12240;51.142;22.486;2023-04-21T03:57:46;12.90;;;6.53;;
24030;SDS011;12240;51.142;22.486;2023-04-21T04:00:14;13.57;;;5.80;;
24030;SDS011;12240;51.142;22.486;2023-04-21T04:02:44;19.42;;;7.07;;
24030;SDS011;12240;51.142;22.486;2023-04-21T04:05:12;15.57;;;7.43;;
24030;SDS011;12240;51.142;22.486;2023-04-21T04:07:40;13.93;;;7.55;;
24030;SDS011;12240;51.142;22.486;2023-04-21T04:10:08;13.13;;;6.28;;
24030;SDS011;12240;51.142;22.486;2023-04-21T04:12:38;11.65;;;6.70;;
24030;SDS011;12240;51.142;22.486;2023-04-21T04:15:06;12.70;;;6.22;;
24030;SDS011;12240;51.142;22.486;2023-04-21T04:17:34;11.80;;;7.03;;
24030;SDS011;12240;51.142;22.486;2023-04-21T04:20:04;12.85;;;6.20;;
24030;SDS011;12240;51.142;22.486;2023-04-21T04:22:34;14.50;;;6.85;;
24030;SDS011;12240;51.142;22.486;2023-04-21T04:25:03;12.63;;;5.95;;
24030;SDS011;12240;51.142;22.486;2023-04-21T04:27:31;17.60;;;6.38;;
24030;SDS011;12240;51.142;22.486;2023-04-21T04:30:00;14.13;;;6.50;;
24030;SDS011;12240;51.142;22.486;2023-04-21T04:32:29;11.25;;;5.70;;
24030;SDS011;12240;51.142;22.486;2023-04-21T04:34:59;9.55;;;5.43;;
24030;SDS011;12240;51.142;22.486;2023-04-21T04:37:28;15.07;;;6.07;;
24030;SDS011;12240;51.142;22.486;2023-04-21T04:39:57;11.70;;;5.75;;
24030;SDS011;12240;51.142;22.486;2023-04-21T04:42:26;13.18;;;5.97;;
24030;SDS011;12240;51.142;22.486;2023-04-21T04:44:55;12.18;;;5.35;;
24030;SDS011;12240;51.142;22.486;2023-04-21T04:47:23;10.45;;;4.85;;
24030;SDS011;12240;51.142;22.486;2023-04-21T04:49:51;10.70;;;4.88;;
24030;SDS011;12240;51.142;22.486;2023-04-21T04:52:19;13.82;;;5.53;;
24030;SDS011;12240;51.142;22.486;2023-04-21T04:54:47;12.80;;;4.85;;
24030;SDS011;12240;51.142;22.486;2023-04-21T04:57:15;13.80;;;5.43;;
24030;SDS011;12240;51.142;22.486;2023-04-21T04:59:43;13.05;;;4.88;;
24030;SDS011;12240;51.142;22.486;2023-04-21T05:02:12;8.60;;;5.15;;
24030;SDS011;12240;51.142;22.486;2023-04-21T05:04:40;9.85;;;5.40;;
24030;SDS011;12240;51.142;22.486;2023-04-21T05:07:09;11.77;;;5.60;;
24030;SDS011;12240;51.142;22.486;2023-04-21T05:09:37;11.95;;;5.10;;
24030;SDS011;12240;51.142;22.486;2023-04-21T05:12:06;10.50;;;5.72;;
24030;SDS011;12240;51.142;22.486;2023-04-21T05:14:34;12.70;;;5.57;;
24030;SDS011;12240;51.142;22.486;2023-04-21T05:17:02;14.38;;;5.32;;
24030;SDS011;12240;51.142;22.486;2023-04-21T05:19:33;12.63;;;5.63;;
24030;SDS011;12240;51.142;22.486;2023-04-21T05:22:04;10.90;;;4.85;;
24030;SDS011;12240;51.142;22.486;2023-04-21T05:24:35;18.00;;;4.90;;
24030;SDS011;12240;51.142;22.486;2023-04-21T05:27:03;17.20;;;5.45;;
24030;SDS011;12240;51.142;22.486;2023-04-21T05:29:33;11.85;;;4.80;;
24030;SDS011;12240;51.142;22.486;2023-04-21T05:32:03;9.70;;;4.55;;
24030;SDS011;12240;51.142;22.486;2023-04-21T05:34:31;8.50;;;4.63;;
24030;SDS011;12240;51.142;22.486;2023-04-21T05:37:00;9.60;;;4.68;;
24030;SDS011;12240;51.142;22.486;2023-04-21T05:39:28;15.65;;;4.75;;
24030;SDS011;12240;51.142;22.486;2023-04-21T05:41:57;13.48;;;4.38;;
24030;SDS011;12240;51.142;22.486;2023-04-21T05:44:25;11.35;;;4.38;;
24030;SDS011;12240;51.142;22.486;2023-04-21T05:46:53;11.32;;;3.95;;
24030;SDS011;12240;51.142;22.486;2023-04-21T05:49:21;10.95;;;3.85;;
24030;SDS011;12240;51.142;22.486;2023-04-21T05:51:50;8.43;;;3.92;;
24030;SDS011;12240;51.142;22.486;2023-04-21T05:54:18;7.35;;;4.47;;
24030;SDS011;12240;51.142;22.486;2023-04-21T05:56:46;6.30;;;3.70;;
24030;SDS011;12240;51.142;22.486;2023-04-21T05:59:14;11.52;;;3.97;;
24030;SDS011;12240;51.142;22.486;2023-04-21T06:01:43;7.50;;;4.10;;
24030;SDS011;12240;51.142;22.486;2023-04-21T06:04:11;8.27;;;4.10;;
24030;SDS011;12240;51.142;22.486;2023-04-21T06:06:40;9.60;;;4.38;;
24030;SDS011;12240;51.142;22.486;2023-04-21T06:09:08;10.43;;;3.88;;
24030;SDS011;12240;51.142;22.486;2023-04-21T06:11:36;7.95;;;3.78;;
24030;SDS011;12240;51.142;22.486;2023-04-21T06:14:04;12.30;;;3.90;;
24030;SDS011;12240;51.142;22.486;2023-04-21T06:16:32;10.40;;;3.80;;
24030;SDS011;12240;51.142;22.486;2023-04-21T06:19:01;8.82;;;4.00;;
24030;SDS011;12240;51.142;22.486;2023-04-21T06:21:31;5.95;;;3.25;;
24030;SDS011;12240;51.142;22.486;2023-04-21T06:23:59;8.50;;;3.95;;
24030;SDS011;12240;51.142;22.486;2023-04-21T06:26:27;9.75;;;4.20;;
24030;SDS011;12240;51.142;22.486;2023-04-21T06:28:56;11.57;;;4.07;;
24030;SDS011;12240;51.142;22.486;2023-04-21T06:31:24;9.20;;;3.92;;
24030;SDS011;12240;51.142;22.486;2023-04-21T06:33:53;10.75;;;4.20;;
24030;SDS011;12240;51.142;22.486;2023-04-21T06:36:21;10.00;;;3.80;;
24030;SDS011;12240;51.142;22.486;2023-04-21T06:38:49;7.95;;;4.10;;
24030;SDS011;12240;51.142;22.486;2023-04-21T06:41:17;8.93;;;3.70;;
24030;SDS011;12240;51.142;22.486;2023-04-21T06:43:45;6.47;;;3.60;;
24030;SDS011;12240;51.142;22.486;2023-04-21T06:46:14;7.30;;;3.67;;
24030;SDS011;12240;51.142;22.486;2023-04-21T06:48:42;9.43;;;4.05;;
24030;SDS011;12240;51.142;22.486;2023-04-21T06:51:10;11.68;;;3.80;;
24030;SDS011;12240;51.142;22.486;2023-04-21T06:53:38;9.48;;;3.65;;
24030;SDS011;12240;51.142;22.486;2023-04-21T06:56:06;14.35;;;4.05;;
24030;SDS011;12240;51.142;22.486;2023-04-21T06:58:34;6.53;;;3.85;;
24030;SDS011;12240;51.142;22.486;2023-04-21T07:01:02;8.70;;;3.65;;
24030;SDS011;12240;51.142;22.486;2023-04-21T07:03:30;11.15;;;3.95;;
24030;SDS011;12240;51.142;22.486;2023-04-21T07:05:59;9.13;;;4.07;;
24030;SDS011;12240;51.142;22.486;2023-04-21T07:08:28;6.82;;;3.55;;
24030;SDS011;12240;51.142;22.486;2023-04-21T07:10:56;10.70;;;3.88;;
24030;SDS011;12240;51.142;22.486;2023-04-21T07:13:24;8.52;;;3.50;;
24030;SDS011;12240;51.142;22.486;2023-04-21T07:15:53;8.27;;;3.50;;
24030;SDS011;12240;51.142;22.486;2023-04-21T07:18:22;7.93;;;3.15;;
24030;SDS011;12240;51.142;22.486;2023-04-21T07:20:50;9.02;;;3.35;;
24030;SDS011;12240;51.142;22.486;2023-04-21T07:23:18;10.10;;;3.22;;
24030;SDS011;12240;51.142;22.486;2023-04-21T07:25:46;5.55;;;3.25;;
24030;SDS011;12240;51.142;22.486;2023-04-21T07:28:15;9.15;;;2.88;;
24030;SDS011;12240;51.142;22.486;2023-04-21T07:30:44;7.75;;;3.50;;
24030;SDS011;12240;51.142;22.486;2023-04-21T07:33:12;7.72;;;3.30;;
24030;SDS011;12240;51.142;22.486;2023-04-21T07:35:40;6.47;;;3.40;;
24030;SDS011;12240;51.142;22.486;2023-04-21T07:38:10;8.02;;;3.00;;
24030;SDS011;12240;51.142;22.486;2023-04-21T07:40:38;7.97;;;3.28;;
24030;SDS011;12240;51.142;22.486;2023-04-21T07:43:06;7.05;;;2.90;;
24030;SDS011;12240;51.142;22.486;2023-04-21T07:45:34;11.30;;;4.05;;
24030;SDS011;12240;51.142;22.486;2023-04-21T07:48:03;9.05;;;3.22;;
24030;SDS011;12240;51.142;22.486;2023-04-21T07:50:33;7.45;;;3.33;;
24030;SDS011;12240;51.142;22.486;2023-04-21T07:53:02;6.57;;;3.05;;
24030;SDS011;12240;51.142;22.486;2023-04-21T07:55:31;7.70;;;3.10;;
24030;SDS011;12240;51.142;22.486;2023-04-21T07:58:00;6.10;;;3.40;;
24030;SDS011;12240;51.142;22.486;2023-04-21T08:00:28;7.47;;;3.40;;
24030;SDS011;12240;51.142;22.486;2023-04-21T08:02:57;7.28;;;3.42;;
24030;SDS011;12240;51.142;22.486;2023-04-21T08:05:25;6.95;;;3.13;;
24030;SDS011;12240;51.142;22.486;2023-04-21T08:08:00;9.27;;;3.25;;
24030;SDS011;12240;51.142;22.486;2023-04-21T08:10:28;4.55;;;3.08;;
24030;SDS011;12240;51.142;22.486;2023-04-21T08:12:56;7.63;;;3.33;;
24030;SDS011;12240;51.142;22.486;2023-04-21T08:15:24;8.77;;;2.92;;
24030;SDS011;12240;51.142;22.486;2023-04-21T08:17:52;5.88;;;2.78;;
24030;SDS011;12240;51.142;22.486;2023-04-21T08:20:21;4.68;;;2.63;;
24030;SDS011;12240;51.142;22.486;2023-04-21T08:22:49;4.72;;;3.10;;
24030;SDS011;12240;51.142;22.486;2023-04-21T08:25:17;5.32;;;2.75;;
24030;SDS011;12240;51.142;22.486;2023-04-21T08:27:46;6.07;;;3.30;;
24030;SDS011;12240;51.142;22.486;2023-04-21T08:30:14;6.00;;;2.58;;
24030;SDS011;12240;51.142;22.486;2023-04-21T08:32:42;6.05;;;3.10;;
24030;SDS011;12240;51.142;22.486;2023-04-21T08:35:10;9.02;;;2.88;;
24030;SDS011;12240;51.142;22.486;2023-04-21T08:37:38;4.75;;;2.45;;
24030;SDS011;12240;51.142;22.486;2023-04-21T08:40:07;4.93;;;2.83;;
24030;SDS011;12240;51.142;22.486;2023-04-21T08:42:36;6.85;;;2.53;;
24030;SDS011;12240;51.142;22.486;2023-04-21T08:45:05;4.57;;;2.47;;
24030;SDS011;12240;51.142;22.486;2023-04-21T08:47:39;5.20;;;2.55;;
24030;SDS011;12240;51.142;22.486;2023-04-21T08:50:11;7.68;;;2.90;;
24030;SDS011;12240;51.142;22.486;2023-04-21T08:52:41;7.70;;;2.78;;
24030;SDS011;12240;51.142;22.486;2023-04-21T08:55:10;9.38;;;2.90;;
24030;SDS011;12240;51.142;22.486;2023-04-21T08:57:39;4.97;;;2.42;;
24030;SDS011;12240;51.142;22.486;2023-04-21T09:00:07;5.95;;;2.45;;
24030;SDS011;12240;51.142;22.486;2023-04-21T09:02:55;6.07;;;2.55;;
24030;SDS011;12240;51.142;22.486;2023-04-21T09:05:29;7.22;;;2.40;;
24030;SDS011;12240;51.142;22.486;2023-04-21T09:10:44;10.18;;;2.58;;
24030;SDS011;12240;51.142;22.486;2023-04-21T09:13:15;5.13;;;2.15;;
24030;SDS011;12240;51.142;22.486;2023-04-21T09:15:46;9.02;;;2.22;;
24030;SDS011;12240;51.142;22.486;2023-04-21T09:18:22;3.97;;;2.30;;
24030;SDS011;12240;51.142;22.486;2023-04-21T09:21:07;5.28;;;1.98;;
24030;SDS011;12240;51.142;22.486;2023-04-21T09:26:17;4.03;;;2.30;;
24030;SDS011;12240;51.142;22.486;2023-04-21T09:28:50;5.68;;;2.25;;
24030;SDS011;12240;51.142;22.486;2023-04-21T09:31:21;4.57;;;1.92;;
24030;SDS011;12240;51.142;22.486;2023-04-21T09:36:28;4.55;;;2.53;;
24030;SDS011;12240;51.142;22.486;2023-04-21T09:38:59;3.45;;;2.17;;
24030;SDS011;12240;51.142;22.486;2023-04-21T09:41:48;6.80;;;2.40;;
24030;SDS011;12240;51.142;22.486;2023-04-21T09:44:17;4.30;;;2.08;;
24030;SDS011;12240;51.142;22.486;2023-04-21T09:46:47;6.22;;;2.20;;
24030;SDS011;12240;51.142;22.486;2023-04-21T09:49:17;5.43;;;1.97;;
24030;SDS011;12240;51.142;22.486;2023-04-21T09:51:49;5.47;;;2.15;;
24030;SDS011;12240;51.142;22.486;2023-04-21T09:54:20;4.93;;;2.28;;
24030;SDS011;12240;51.142;22.486;2023-04-21T09:56:59;4.53;;;1.98;;
24030;SDS011;12240;51.142;22.486;2023-04-21T09:59:37;2.67;;;2.00;;
24030;SDS011;12240;51.142;22.486;2023-04-21T10:02:12;3.92;;;2.20;;
24030;SDS011;12240;51.142;22.486;2023-04-21T10:04:40;4.78;;;2.20;;
24030;SDS011;12240;51.142;22.486;2023-04-21T10:07:10;4.57;;;1.80;;
24030;SDS011;12240;51.142;22.486;2023-04-21T10:09:52;3.88;;;1.95;;
24030;SDS011;12240;51.142;22.486;2023-04-21T10:12:23;6.88;;;2.15;;
24030;SDS011;12240;51.142;22.486;2023-04-21T10:14:53;3.43;;;2.00;;
24030;SDS011;12240;51.142;22.486;2023-04-21T10:17:23;3.30;;;1.73;;
24030;SDS011;12240;51.142;22.486;2023-04-21T10:19:53;8.57;;;2.30;;
24030;SDS011;12240;51.142;22.486;2023-04-21T10:22:29;4.50;;;2.13;;
24030;SDS011;12240;51.142;22.486;2023-04-21T10:25:00;4.47;;;2.10;;
24030;SDS011;12240;51.142;22.486;2023-04-21T10:27:31;5.38;;;1.90;;
24030;SDS011;12240;51.142;22.486;2023-04-21T10:30:21;5.05;;;2.05;;
24030;SDS011;12240;51.142;22.486;2023-04-21T10:33:02;6.10;;;2.40;;
24030;SDS011;12240;51.142;22.486;2023-04-21T10:38:40;7.07;;;2.20;;
24030;SDS011;12240;51.142;22.486;2023-04-21T10:43:58;8.30;;;2.58;;
24030;SDS011;12240;51.142;22.486;2023-04-21T10:46:43;3.65;;;2.10;;
24030;SDS011;12240;51.142;22.486;2023-04-21T10:49:21;4.72;;;2.08;;
24030;SDS011;12240;51.142;22.486;2023-04-21T10:54:29;4.30;;;2.22;;
24030;SDS011;12240;51.142;22.486;2023-04-21T10:57:31;6.90;;;2.28;;
24030;SDS011;12240;51.142;22.486;2023-04-21T11:00:01;5.53;;;2.33;;
24030;SDS011;12240;51.142;22.486;2023-04-21T11:02:33;4.00;;;2.00;;
24030;SDS011;12240;51.142;22.486;2023-04-21T11:05:07;6.45;;;1.88;;
24030;SDS011;12240;51.142;22.486;2023-04-21T11:07:37;3.92;;;2.30;;
24030;SDS011;12240;51.142;22.486;2023-04-21T11:10:06;3.45;;;2.20;;
24030;SDS011;12240;51.142;22.486;2023-04-21T11:15:07;3.88;;;2.10;;
24030;SDS011;12240;51.142;22.486;2023-04-21T11:17:38;5.65;;;2.50;;
24030;SDS011;12240;51.142;22.486;2023-04-21T11:20:09;3.22;;;2.05;;
24030;SDS011;12240;51.142;22.486;2023-04-21T11:22:37;5.30;;;2.00;;
24030;SDS011;12240;51.142;22.486;2023-04-21T11:25:14;3.33;;;2.17;;
24030;SDS011;12240;51.142;22.486;2023-04-21T11:27:54;4.38;;;2.42;;
24030;SDS011;12240;51.142;22.486;2023-04-21T11:30:32;4.72;;;2.25;;
24030;SDS011;12240;51.142;22.486;2023-04-21T11:33:01;7.32;;;2.28;;
24030;SDS011;12240;51.142;22.486;2023-04-21T11:35:30;5.75;;;2.50;;
24030;SDS011;12240;51.142;22.486;2023-04-21T11:38:03;7.60;;;2.20;;
24030;SDS011;12240;51.142;22.486;2023-04-21T11:40:47;5.05;;;2.40;;
24030;SDS011;12240;51.142;22.486;2023-04-21T11:49:53;4.45;;;2.20;;
24030;SDS011;12240;51.142;22.486;2023-04-21T11:52:29;5.53;;;2.05;;
24030;SDS011;12240;51.142;22.486;2023-04-21T11:55:00;8.70;;;2.20;;
24030;SDS011;12240;51.142;22.486;2023-04-21T11:57:32;8.10;;;2.08;;
24030;SDS011;12240;51.142;22.486;2023-04-21T12:00:02;3.55;;;2.47;;
24030;SDS011;12240;51.142;22.486;2023-04-21T12:02:33;4.88;;;2.10;;
24030;SDS011;12240;51.142;22.486;2023-04-21T12:07:43;5.35;;;2.33;;
24030;SDS011;12240;51.142;22.486;2023-04-21T12:10:19;3.90;;;2.42;;
24030;SDS011;12240;51.142;22.486;2023-04-21T12:12:47;4.97;;;2.30;;
24030;SDS011;12240;51.142;22.486;2023-04-21T12:15:18;4.72;;;2.17;;
24030;SDS011;12240;51.142;22.486;2023-04-21T12:20:20;7.70;;;2.00;;
24030;SDS011;12240;51.142;22.486;2023-04-21T12:22:51;13.05;;;2.70;;
24030;SDS011;12240;51.142;22.486;2023-04-21T12:25:19;5.28;;;2.30;;
24030;SDS011;12240;51.142;22.486;2023-04-21T12:27:51;4.43;;;2.08;;
24030;SDS011;12240;51.142;22.486;2023-04-21T12:30:24;5.72;;;2.67;;
24030;SDS011;12240;51.142;22.486;2023-04-21T12:32:52;7.30;;;2.38;;
24030;SDS011;12240;51.142;22.486;2023-04-21T12:35:22;4.82;;;2.33;;
24030;SDS011;12240;51.142;22.486;2023-04-21T12:37:50;4.88;;;2.65;;
24030;SDS011;12240;51.142;22.486;2023-04-21T12:40:18;5.72;;;2.58;;
24030;SDS011;12240;51.142;22.486;2023-04-21T12:42:46;7.60;;;2.63;;
24030;SDS011;12240;51.142;22.486;2023-04-21T12:45:15;3.05;;;2.15;;
24030;SDS011;12240;51.142;22.486;2023-04-21T12:47:43;6.88;;;2.40;;
24030;SDS011;12240;51.142;22.486;2023-04-21T12:50:13;4.97;;;2.60;;
24030;SDS011;12240;51.142;22.486;2023-04-21T12:52:42;4.60;;;2.58;;
24030;SDS011;12240;51.142;22.486;2023-04-21T12:55:10;3.88;;;2.40;;
24030;SDS011;12240;51.142;22.486;2023-04-21T12:57:39;6.07;;;3.25;;
24030;SDS011;12240;51.142;22.486;2023-04-21T13:00:08;6.22;;;2.42;;
24030;SDS011;12240;51.142;22.486;2023-04-21T13:02:39;6.30;;;3.47;;
24030;SDS011;12240;51.142;22.486;2023-04-21T13:05:08;5.30;;;2.80;;
24030;SDS011;12240;51.142;22.486;2023-04-21T13:07:38;14.27;;;3.00;;
24030;SDS011;12240;51.142;22.486;2023-04-21T13:10:07;8.68;;;3.38;;
24030;SDS011;12240;51.142;22.486;2023-04-21T13:12:36;7.15;;;2.83;;
24030;SDS011;12240;51.142;22.486;2023-04-21T13:15:05;10.45;;;2.92;;
24030;SDS011;12240;51.142;22.486;2023-04-21T13:17:34;15.05;;;3.50;;
24030;SDS011;12240;51.142;22.486;2023-04-21T13:20:02;12.13;;;4.57;;
24030;SDS011;12240;51.142;22.486;2023-04-21T13:22:31;7.88;;;3.22;;
24030;SDS011;12240;51.142;22.486;2023-04-21T13:24:59;7.13;;;3.15;;
24030;SDS011;12240;51.142;22.486;2023-04-21T13:27:28;5.75;;;3.38;;
24030;SDS011;12240;51.142;22.486;2023-04-21T13:29:57;8.00;;;3.22;;
24030;SDS011;12240;51.142;22.486;2023-04-21T13:32:25;5.85;;;3.08;;
24030;SDS011;12240;51.142;22.486;2023-04-21T13:34:54;4.97;;;2.85;;
24030;SDS011;12240;51.142;22.486;2023-04-21T13:37:22;7.07;;;2.95;;
24030;SDS011;12240;51.142;22.486;2023-04-21T13:39:50;6.68;;;2.70;;
24030;SDS011;12240;51.142;22.486;2023-04-21T13:42:19;5.35;;;3.00;;
24030;SDS011;12240;51.142;22.486;2023-04-21T13:44:48;6.07;;;3.15;;
24030;SDS011;12240;51.142;22.486;2023-04-21T13:47:16;4.78;;;3.10;;
24030;SDS011;12240;51.142;22.486;2023-04-21T13:49:44;4.20;;;2.80;;
24030;SDS011;12240;51.142;22.486;2023-04-21T13:52:13;5.85;;;3.10;;
24030;SDS011;12240;51.142;22.486;2023-04-21T13:54:41;6.40;;;3.05;;
24030;SDS011;12240;51.142;22.486;2023-04-21T13:57:09;4.60;;;2.90;;
24030;SDS011;12240;51.142;22.486;2023-04-21T13:59:37;6.90;;;2.92;;
24030;SDS011;12240;51.142;22.486;2023-04-21T14:02:07;4.78;;;2.97;;
24030;SDS011;12240;51.142;22.486;2023-04-21T14:04:36;4.97;;;2.78;;
24030;SDS011;12240;51.142;22.486;2023-04-21T14:07:05;5.28;;;3.08;;
24030;SDS011;12240;51.142;22.486;2023-04-21T14:09:34;7.18;;;3.08;;
24030;SDS011;12240;51.142;22.486;2023-04-21T14:12:02;4.93;;;2.90;;
24030;SDS011;12240;51.142;22.486;2023-04-21T14:14:31;5.05;;;2.97;;
24030;SDS011;12240;51.142;22.486;2023-04-21T14:17:02;9.10;;;3.35;;
24030;SDS011;12240;51.142;22.486;2023-04-21T14:19:30;6.95;;;3.20;;
24030;SDS011;12240;51.142;22.486;2023-04-21T14:21:59;6.85;;;3.15;;
24030;SDS011;12240;51.142;22.486;2023-04-21T14:24:27;5.00;;;2.80;;
24030;SDS011;12240;51.142;22.486;2023-04-21T14:26:56;6.13;;;2.60;;
24030;SDS011;12240;51.142;22.486;2023-04-21T14:29:25;6.50;;;2.83;;
24030;SDS011;12240;51.142;22.486;2023-04-21T14:31:53;7.00;;;3.10;;
24030;SDS011;12240;51.142;22.486;2023-04-21T14:34:24;9.55;;;4.07;;
24030;SDS011;12240;51.142;22.486;2023-04-21T14:36:52;14.57;;;3.90;;
24030;SDS011;12240;51.142;22.486;2023-04-21T14:39:21;11.23;;;3.22;;
24030;SDS011;12240;51.142;22.486;2023-04-21T14:41:50;9.80;;;3.17;;
24030;SDS011;12240;51.142;22.486;2023-04-21T14:44:19;11.73;;;3.88;;
24030;SDS011;12240;51.142;22.486;2023-04-21T14:46:47;6.38;;;2.70;;
24030;SDS011;12240;51.142;22.486;2023-04-21T14:49:32;5.28;;;3.13;;
24030;SDS011;12240;51.142;22.486;2023-04-21T14:52:00;6.63;;;2.92;;
24030;SDS011;12240;51.142;22.486;2023-04-21T14:54:29;4.35;;;2.67;;
24030;SDS011;12240;51.142;22.486;2023-04-21T14:56:58;6.43;;;2.60;;
24030;SDS011;12240;51.142;22.486;2023-04-21T14:59:47;7.35;;;2.85;;
24030;SDS011;12240;51.142;22.486;2023-04-21T15:02:17;3.63;;;2.25;;
24030;SDS011;12240;51.142;22.486;2023-04-21T15:07:17;4.28;;;2.40;;
24030;SDS011;12240;51.142;22.486;2023-04-21T15:09:50;6.00;;;2.60;;
24030;SDS011;12240;51.142;22.486;2023-04-21T15:12:19;6.72;;;3.13;;
24030;SDS011;12240;51.142;22.486;2023-04-21T15:14:48;6.10;;;2.28;;
24030;SDS011;12240;51.142;22.486;2023-04-21T15:17:16;6.30;;;2.63;;
24030;SDS011;12240;51.142;22.486;2023-04-21T15:19:44;4.32;;;2.55;;
24030;SDS011;12240;51.142;22.486;2023-04-21T15:22:12;6.30;;;3.03;;